createdAt,value
2022-10-12T00:00:40.299Z,6.26
2022-10-12T00:05:41.147Z,6.29
2022-10-12T00:10:43.513Z,6.29
2022-10-12T00:15:44.434Z,6.34
2022-10-12T00:20:45.588Z,6.15
2022-10-12T00:25:46.324Z,6.21
2022-10-12T00:30:47.086Z,6.14
2022-10-12T00:35:47.857Z,6.08
2022-10-12T00:40:49.104Z,5.94
2022-10-12T00:45:50.056Z,5.88
2022-10-12T00:50:51.551Z,6.02
2022-10-12T00:55:58.125Z,6.02
2022-10-12T01:01:04.357Z,5.94
2022-10-12T01:06:06.901Z,5.98
2022-10-12T01:11:07.616Z,5.96
2022-10-12T01:23:15.848Z,5.99
2022-10-12T01:28:35.579Z,5.45
2022-10-12T01:33:44.971Z,5.62
2022-10-12T01:41:02.801Z,5.79
2022-10-12T01:47:55.904Z,5.80
2022-10-12T01:53:27.373Z,5.96
2022-10-12T02:00:06.463Z,5.91
2022-10-12T02:06:50.287Z,5.82
2022-10-12T02:11:56.362Z,5.52
2022-10-12T02:17:04.805Z,5.32
2022-10-12T02:22:08.838Z,5.37
2022-10-12T02:27:13.646Z,5.59
2022-10-12T02:32:34.904Z,5.67
2022-10-12T02:37:44.660Z,5.82
2022-10-12T02:43:11.080Z,5.76
2022-10-12T02:48:17.322Z,5.73
2022-10-12T02:53:19.896Z,5.74
2022-10-12T02:58:20.690Z,5.67
2022-10-12T03:03:21.701Z,5.67
2022-10-12T03:08:22.493Z,5.72
2022-10-12T03:13:23.250Z,5.73
2022-10-12T03:18:23.993Z,5.75
2022-10-12T03:23:25.101Z,5.72
2022-10-12T03:28:25.985Z,5.64
2022-10-12T03:33:27.000Z,5.59
2022-10-12T03:38:28.027Z,5.64
2022-10-12T03:43:28.849Z,5.63
2022-10-12T03:48:29.581Z,5.73
2022-10-12T03:53:30.824Z,5.56
2022-10-12T03:58:31.567Z,5.56
2022-10-12T04:03:32.410Z,5.57
2022-10-12T04:08:33.443Z,5.58
2022-10-12T04:13:34.644Z,5.63
2022-10-12T04:18:35.554Z,5.57
2022-10-12T04:23:36.385Z,5.50
2022-10-12T04:28:37.277Z,5.51
2022-10-12T04:33:38.517Z,5.51
2022-10-12T04:38:39.255Z,5.41
2022-10-12T04:43:40.223Z,5.44
2022-10-12T04:48:40.949Z,5.37
2022-10-12T04:53:41.989Z,5.41
2022-10-12T04:58:43.399Z,5.49
2022-10-12T05:03:44.266Z,5.48
2022-10-12T05:08:45.019Z,5.47
2022-10-12T05:13:45.809Z,5.44
2022-10-12T05:18:47.000Z,5.47
2022-10-12T05:23:51.669Z,5.43
2022-10-12T05:28:52.466Z,5.51
2022-10-12T05:33:53.716Z,5.33
2022-10-12T05:38:54.615Z,5.09
2022-10-12T05:43:55.554Z,5.13
2022-10-12T05:48:56.276Z,5.02
2022-10-12T05:53:57.029Z,5.17
2022-10-12T05:58:57.763Z,5.19
2022-10-12T06:03:58.672Z,5.33
2022-10-12T06:08:59.541Z,5.52
2022-10-12T06:14:00.317Z,5.77
2022-10-12T06:19:01.034Z,6.00
2022-10-12T06:24:01.811Z,6.19
2022-10-12T06:29:02.953Z,6.37
2022-10-12T06:34:04.080Z,6.48
2022-10-12T06:39:04.916Z,6.60
2022-10-12T06:44:06.384Z,6.88
2022-10-12T06:49:09.525Z,7.32
2022-10-12T06:54:10.418Z,7.78
2022-10-12T06:59:12.572Z,8.11
2022-10-12T07:04:13.392Z,8.03
2022-10-12T07:09:16.198Z,7.94
2022-10-12T07:14:17.134Z,7.94
2022-10-12T07:19:17.908Z,7.74
2022-10-12T07:24:18.648Z,7.89
2022-10-12T07:29:19.398Z,8.07
2022-10-12T07:34:20.204Z,8.28
2022-10-12T07:39:22.143Z,8.35
2022-10-12T07:44:23.690Z,8.49
2022-10-12T07:49:24.731Z,8.54
2022-10-12T07:54:29.153Z,8.73
2022-10-12T07:59:30.744Z,8.78
2022-10-12T08:04:31.574Z,8.87
2022-10-12T08:09:35.138Z,9.03
2022-10-12T08:14:36.484Z,9.25
2022-10-12T08:19:37.239Z,9.45
2022-10-12T08:24:38.053Z,9.57
2022-10-12T08:29:38.868Z,9.86
2022-10-12T08:34:39.821Z,10.19
2022-10-12T08:39:40.602Z,10.50
2022-10-12T08:46:34.012Z,10.43
2022-10-12T08:51:45.397Z,10.46
2022-10-12T08:56:46.290Z,10.96
2022-10-12T09:05:04.202Z,11.40
2022-10-12T09:10:37.678Z,10.77
2022-10-12T09:15:50.725Z,11.01
2022-10-12T09:20:52.584Z,11.26
2022-10-12T09:26:14.806Z,11.40
2022-10-12T09:31:42.922Z,11.75
2022-10-12T09:36:43.672Z,12.51
2022-10-12T09:41:47.232Z,12.80
2022-10-12T09:46:54.577Z,12.81
2022-10-12T09:51:59.929Z,13.14
2022-10-12T09:57:02.639Z,12.81
2022-10-12T10:02:16.717Z,12.77
2022-10-12T10:07:30.473Z,13.31
2022-10-12T10:12:31.803Z,13.61
2022-10-12T10:17:33.699Z,13.95
2022-10-12T10:22:34.456Z,13.82
2022-10-12T10:27:38.149Z,14.25
2022-10-12T10:32:38.903Z,14.49
2022-10-12T10:38:06.701Z,14.33
2022-10-12T10:43:24.662Z,14.49
2022-10-12T10:48:50.450Z,14.04
2022-10-12T10:53:51.302Z,14.14
2022-10-12T10:58:55.809Z,14.34
2022-10-12T11:07:01.107Z,14.47
2022-10-12T11:12:06.721Z,14.52
2022-10-12T11:17:16.472Z,14.71
2022-10-12T11:22:31.961Z,14.56
2022-10-12T11:27:41.104Z,14.22
2022-10-12T11:32:46.577Z,14.63
2022-10-12T11:37:53.373Z,14.06
2022-10-12T11:42:57.439Z,14.13
2022-10-12T11:48:09.643Z,14.60
2022-10-12T11:53:38.169Z,15.12
2022-10-12T11:58:59.836Z,15.11
2022-10-12T12:05:54.131Z,14.99
2022-10-12T12:11:18.670Z,15.06
2022-10-12T12:16:30.179Z,15.64
2022-10-12T12:22:25.797Z,15.66
2022-10-12T12:27:34.346Z,15.62
2022-10-12T12:32:46.357Z,15.10
2022-10-12T12:37:48.536Z,14.78
2022-10-12T12:42:49.679Z,15.03
2022-10-12T12:47:50.433Z,15.28
2022-10-12T12:53:05.956Z,14.92
2022-10-12T12:59:50.030Z,14.71
2022-10-12T13:05:29.141Z,14.71
2022-10-12T13:15:56.800Z,14.98
2022-10-12T13:20:58.602Z,14.88
2022-10-12T13:26:07.675Z,15.19
2022-10-12T13:31:57.950Z,15.12
2022-10-12T13:37:04.504Z,14.69
2022-10-12T13:42:05.937Z,14.58
2022-10-12T13:47:31.547Z,14.80
2022-10-12T13:52:33.565Z,14.95
2022-10-12T13:57:40.533Z,14.82
2022-10-12T14:02:52.431Z,14.76
2022-10-12T14:07:57.713Z,14.48
2022-10-12T14:13:01.116Z,14.46
2022-10-12T14:18:02.970Z,15.07
2022-10-12T14:23:15.192Z,14.87
2022-10-12T14:28:35.995Z,14.68
2022-10-12T14:33:36.792Z,14.50
2022-10-12T14:38:46.373Z,14.36
2022-10-12T14:44:06.153Z,14.11
2022-10-12T14:49:17.935Z,13.93
2022-10-12T14:54:19.166Z,13.81
2022-10-12T14:59:20.150Z,13.81
2022-10-12T15:04:20.896Z,13.70
2022-10-12T15:09:21.930Z,13.90
2022-10-12T15:14:22.702Z,13.90
2022-10-12T15:19:23.541Z,13.78
2022-10-12T15:24:24.316Z,13.58
2022-10-12T15:29:25.173Z,13.64
2022-10-12T15:34:26.641Z,13.69
2022-10-12T15:39:27.400Z,13.42
2022-10-12T15:44:28.256Z,13.35
2022-10-12T15:49:29.014Z,13.35
2022-10-12T15:54:29.754Z,13.31
2022-10-12T15:59:30.584Z,13.20
2022-10-12T16:04:31.324Z,13.20
2022-10-12T16:09:32.342Z,13.32
2022-10-12T16:14:33.093Z,13.30
2022-10-12T16:19:33.988Z,13.23
2022-10-12T16:24:35.036Z,13.10
2022-10-12T16:29:36.629Z,12.93
2022-10-12T16:34:37.589Z,12.78
2022-10-12T16:39:38.358Z,12.71
2022-10-12T16:44:39.170Z,12.62
2022-10-12T16:49:39.996Z,12.38
2022-10-12T16:54:41.146Z,12.37
2022-10-12T16:59:42.025Z,12.15
2022-10-12T17:04:43.462Z,11.86
2022-10-12T17:09:45.202Z,11.56
2022-10-12T17:14:46.098Z,11.48
2022-10-12T17:19:47.259Z,11.22
2022-10-12T17:24:48.419Z,11.02
2022-10-12T17:29:49.290Z,10.95
2022-10-12T17:34:50.078Z,10.83
2022-10-12T17:39:50.942Z,10.69
2022-10-12T17:44:52.429Z,10.56
2022-10-12T17:49:53.185Z,10.49
2022-10-12T17:54:53.920Z,10.40
2022-10-12T17:59:54.814Z,10.22
2022-10-12T18:04:55.555Z,10.26
2022-10-12T18:14:57.745Z,10.25
2022-10-12T18:19:58.569Z,10.03
2022-10-12T18:24:59.320Z,10.01
2022-10-12T18:30:00.182Z,9.85
2022-10-12T18:35:01.751Z,10.04
2022-10-12T18:40:03.135Z,9.79
2022-10-12T18:45:05.091Z,9.67
2022-10-12T18:50:07.228Z,9.66
2022-10-12T18:55:09.736Z,9.59
2022-10-12T19:00:11.256Z,9.54
2022-10-12T19:05:12.029Z,9.62
2022-10-12T19:10:12.957Z,9.94
2022-10-12T19:15:13.809Z,9.79
2022-10-12T19:20:14.555Z,9.72
2022-10-12T19:25:15.471Z,9.82
2022-10-12T19:30:16.424Z,9.88
2022-10-12T19:35:17.210Z,9.80
2022-10-12T19:40:17.973Z,9.77
2022-10-12T19:45:18.743Z,9.65
2022-10-12T19:50:19.489Z,9.58
2022-10-12T19:55:20.255Z,9.52
2022-10-12T20:00:21.171Z,9.52
2022-10-12T20:05:21.944Z,9.59
2022-10-12T20:10:22.711Z,9.43
2022-10-12T20:15:23.505Z,9.37
2022-10-12T20:20:24.257Z,9.42
2022-10-12T20:25:25.067Z,9.46
2022-10-12T20:30:25.886Z,9.53
2022-10-12T20:35:27.734Z,9.64
2022-10-12T20:40:28.824Z,9.39
2022-10-12T20:45:29.579Z,9.36
2022-10-12T20:50:30.446Z,9.29
2022-10-12T20:55:31.226Z,9.30
2022-10-12T21:00:32.147Z,9.30
2022-10-12T21:05:36.274Z,9.19
2022-10-12T21:10:40.156Z,9.22
2022-10-12T21:15:49.250Z,9.11
2022-10-12T21:20:58.351Z,8.96
2022-10-12T21:26:08.224Z,8.61
2022-10-12T21:31:10.250Z,8.74
2022-10-12T21:36:20.179Z,8.61
2022-10-12T21:41:23.148Z,8.64
2022-10-12T21:46:29.714Z,8.61
2022-10-12T21:51:31.500Z,8.48
2022-10-12T21:56:34.557Z,8.53
2022-10-12T22:01:38.477Z,8.44
2022-10-12T22:06:39.983Z,8.51
2022-10-12T22:11:41.567Z,8.53
2022-10-12T22:16:45.282Z,8.44
2022-10-12T22:21:51.322Z,8.42
2022-10-12T22:26:53.305Z,8.35
2022-10-12T22:31:54.469Z,8.25
2022-10-12T22:36:55.283Z,8.32
2022-10-12T22:41:58.055Z,8.34
2022-10-12T22:46:58.817Z,8.33
2022-10-12T22:51:59.617Z,8.31
2022-10-12T22:57:00.363Z,8.20
2022-10-12T23:02:02.815Z,8.18
2022-10-12T23:07:03.789Z,7.94
2022-10-12T23:12:04.813Z,8.02
2022-10-12T23:17:05.547Z,8.10
2022-10-12T23:22:06.743Z,8.14
2022-10-12T23:27:07.466Z,8.06
2022-10-12T23:32:08.482Z,8.00
2022-10-12T23:37:09.220Z,8.10
2022-10-12T23:42:09.982Z,7.92
2022-10-12T23:47:10.725Z,7.87
2022-10-12T23:52:12.123Z,7.70
2022-10-12T23:57:28.385Z,7.68
